sensor_id;sensor_type;location;lat;lon;timestamp;temperature;humidity
70550;DHT22;58101;48.658;2.328;2022-11-18T00:01:30;9.50;99.90
70550;DHT22;58101;48.658;2.328;2022-11-18T00:03:55;9.50;99.90
70550;DHT22;58101;48.658;2.328;2022-11-18T00:06:23;9.50;99.90
70550;DHT22;58101;48.658;2.328;2022-11-18T00:08:50;9.50;99.90
70550;DHT22;58101;48.658;2.328;2022-11-18T00:11:23;9.40;99.90
70550;DHT22;58101;48.658;2.328;2022-11-18T00:14:16;9.40;99.90
70550;DHT22;58101;48.658;2.328;2022-11-18T00:16:57;9.50;99.90
70550;DHT22;58101;48.658;2.328;2022-11-18T00:19:29;9.50;99.90
70550;DHT22;58101;48.658;2.328;2022-11-18T00:21:55;9.50;99.90
70550;DHT22;58101;48.658;2.328;2022-11-18T00:24:21;9.50;99.90
70550;DHT22;58101;48.658;2.328;2022-11-18T00:26:47;9.40;99.90
70550;DHT22;58101;48.658;2.328;2022-11-18T00:29:20;9.60;99.90
70550;DHT22;58101;48.658;2.328;2022-11-18T00:31:55;9.60;99.90
70550;DHT22;58101;48.658;2.328;2022-11-18T00:34:21;9.60;99.90
70550;DHT22;58101;48.658;2.328;2022-11-18T00:36:53;9.60;99.90
70550;DHT22;58101;48.658;2.328;2022-11-18T00:39:19;9.60;99.90
70550;DHT22;58101;48.658;2.328;2022-11-18T00:41:46;9.60;99.90
70550;DHT22;58101;48.658;2.328;2022-11-18T00:44:31;9.60;99.90
70550;DHT22;58101;48.658;2.328;2022-11-18T00:47:03;9.60;99.90
70550;DHT22;58101;48.658;2.328;2022-11-18T00:49:32;9.60;99.90
70550;DHT22;58101;48.658;2.328;2022-11-18T00:51:58;9.60;99.90
70550;DHT22;58101;48.658;2.328;2022-11-18T00:54:23;9.60;99.90
70550;DHT22;58101;48.658;2.328;2022-11-18T00:56:55;9.60;99.90
70550;DHT22;58101;48.658;2.328;2022-11-18T00:59:24;9.50;99.90
70550;DHT22;58101;48.658;2.328;2022-11-18T01:01:49;9.60;99.90
70550;DHT22;58101;48.658;2.328;2022-11-18T01:04:18;9.60;99.90
70550;DHT22;58101;48.658;2.328;2022-11-18T01:06:57;9.60;99.90
70550;DHT22;58101;48.658;2.328;2022-11-18T01:09:22;9.50;99.90
70550;DHT22;58101;48.658;2.328;2022-11-18T01:11:48;9.50;99.90
70550;DHT22;58101;48.658;2.328;2022-11-18T01:14:38;9.40;99.90
70550;DHT22;58101;48.658;2.328;2022-11-18T01:17:04;9.40;99.90
70550;DHT22;58101;48.658;2.328;2022-11-18T01:19:30;9.40;99.90
70550;DHT22;58101;48.658;2.328;2022-11-18T01:21:56;9.30;99.90
70550;DHT22;58101;48.658;2.328;2022-11-18T01:24:24;9.30;99.90
70550;DHT22;58101;48.658;2.328;2022-11-18T01:27:01;9.20;99.90
70550;DHT22;58101;48.658;2.328;2022-11-18T01:29:29;9.20;99.90
70550;DHT22;58101;48.658;2.328;2022-11-18T01:31:55;9.20;99.90
70550;DHT22;58101;48.658;2.328;2022-11-18T01:34:20;9.10;99.90
70550;DHT22;58101;48.658;2.328;2022-11-18T01:36:46;9.10;99.90
70550;DHT22;58101;48.658;2.328;2022-11-18T01:39:12;9.20;99.90
70550;DHT22;58101;48.658;2.328;2022-11-18T01:41:37;9.10;99.90
70550;DHT22;58101;48.658;2.328;2022-11-18T01:44:52;9.10;99.90
70550;DHT22;58101;48.658;2.328;2022-11-18T01:46:53;9.10;99.90
70550;DHT22;58101;48.658;2.328;2022-11-18T01:49:19;9.00;99.90
70550;DHT22;58101;48.658;2.328;2022-11-18T01:51:56;9.00;99.90
70550;DHT22;58101;48.658;2.328;2022-11-18T01:54:30;9.00;99.90
70550;DHT22;58101;48.658;2.328;2022-11-18T01:56:59;8.90;99.90
70550;DHT22;58101;48.658;2.328;2022-11-18T01:59:43;9.00;99.90
70550;DHT22;58101;48.658;2.328;2022-11-18T02:02:12;8.90;99.90
70550;DHT22;58101;48.658;2.328;2022-11-18T02:04:46;8.90;99.90
70550;DHT22;58101;48.658;2.328;2022-11-18T02:07:12;9.00;99.90
70550;DHT22;58101;48.658;2.328;2022-11-18T02:09:39;8.80;99.90
70550;DHT22;58101;48.658;2.328;2022-11-18T02:12:05;8.90;99.90
70550;DHT22;58101;48.658;2.328;2022-11-18T02:14:34;8.90;99.90
70550;DHT22;58101;48.658;2.328;2022-11-18T02:17:32;8.90;99.90
70550;DHT22;58101;48.658;2.328;2022-11-18T02:20:17;8.90;99.90
70550;DHT22;58101;48.658;2.328;2022-11-18T02:34:44;8.90;99.90
70550;DHT22;58101;48.658;2.328;2022-11-18T02:39:57;8.90;99.90
70550;DHT22;58101;48.658;2.328;2022-11-18T02:42:25;8.90;99.90
70550;DHT22;58101;48.658;2.328;2022-11-18T02:44:59;8.90;99.90
70550;DHT22;58101;48.658;2.328;2022-11-18T02:47:31;8.90;99.90
70550;DHT22;58101;48.658;2.328;2022-11-18T02:50:02;8.90;99.90
70550;DHT22;58101;48.658;2.328;2022-11-18T02:52:29;8.80;99.90
70550;DHT22;58101;48.658;2.328;2022-11-18T02:54:56;8.80;99.90
70550;DHT22;58101;48.658;2.328;2022-11-18T02:57:24;8.80;99.90
70550;DHT22;58101;48.658;2.328;2022-11-18T02:59:54;8.80;99.90
70550;DHT22;58101;48.658;2.328;2022-11-18T03:02:20;8.80;99.90
70550;DHT22;58101;48.658;2.328;2022-11-18T03:04:48;8.70;99.90
70550;DHT22;58101;48.658;2.328;2022-11-18T03:07:30;8.70;99.90
70550;DHT22;58101;48.658;2.328;2022-11-18T03:09:59;8.70;99.90
70550;DHT22;58101;48.658;2.328;2022-11-18T03:18:31;8.80;99.90
70550;DHT22;58101;48.658;2.328;2022-11-18T03:21:18;8.70;99.90
70550;DHT22;58101;48.658;2.328;2022-11-18T03:23:57;8.70;99.90
70550;DHT22;58101;48.658;2.328;2022-11-18T03:26:34;8.70;99.90
70550;DHT22;58101;48.658;2.328;2022-11-18T03:29:31;8.70;99.90
70550;DHT22;58101;48.658;2.328;2022-11-18T03:32:25;8.60;99.90
70550;DHT22;58101;48.658;2.328;2022-11-18T03:35:02;8.60;99.90
70550;DHT22;58101;48.658;2.328;2022-11-18T03:37:32;8.60;99.90
70550;DHT22;58101;48.658;2.328;2022-11-18T03:40:10;8.50;99.90
70550;DHT22;58101;48.658;2.328;2022-11-18T03:42:54;8.60;99.90
70550;DHT22;58101;48.658;2.328;2022-11-18T03:45:32;8.50;99.90
70550;DHT22;58101;48.658;2.328;2022-11-18T03:48:10;8.50;99.90
70550;DHT22;58101;48.658;2.328;2022-11-18T03:50:53;8.50;99.90
70550;DHT22;58101;48.658;2.328;2022-11-18T03:53:20;8.50;99.90
70550;DHT22;58101;48.658;2.328;2022-11-18T03:55:50;8.50;99.90
70550;DHT22;58101;48.658;2.328;2022-11-18T03:58:30;8.50;99.90
70550;DHT22;58101;48.658;2.328;2022-11-18T04:01:20;8.40;99.90
70550;DHT22;58101;48.658;2.328;2022-11-18T04:03:43;8.40;99.90
70550;DHT22;58101;48.658;2.328;2022-11-18T04:09:14;8.40;99.90
70550;DHT22;58101;48.658;2.328;2022-11-18T04:11:44;8.30;99.90
70550;DHT22;58101;48.658;2.328;2022-11-18T04:14:35;8.50;99.90
70550;DHT22;58101;48.658;2.328;2022-11-18T04:17:22;8.30;99.90
70550;DHT22;58101;48.658;2.328;2022-11-18T04:19:48;8.40;99.90
70550;DHT22;58101;48.658;2.328;2022-11-18T04:22:17;8.50;99.90
70550;DHT22;58101;48.658;2.328;2022-11-18T04:24:43;8.40;99.90
70550;DHT22;58101;48.658;2.328;2022-11-18T04:27:09;8.40;99.90
70550;DHT22;58101;48.658;2.328;2022-11-18T04:29:38;8.50;99.90
70550;DHT22;58101;48.658;2.328;2022-11-18T04:32:10;8.40;99.90
70550;DHT22;58101;48.658;2.328;2022-11-18T04:34:36;8.40;99.90
70550;DHT22;58101;48.658;2.328;2022-11-18T04:37:01;8.40;99.90
70550;DHT22;58101;48.658;2.328;2022-11-18T04:39:27;8.40;99.90
70550;DHT22;58101;48.658;2.328;2022-11-18T04:41:53;8.40;99.90
70550;DHT22;58101;48.658;2.328;2022-11-18T04:44:44;8.40;99.90
70550;DHT22;58101;48.658;2.328;2022-11-18T04:47:10;8.40;99.90
70550;DHT22;58101;48.658;2.328;2022-11-18T04:49:35;8.40;99.90
70550;DHT22;58101;48.658;2.328;2022-11-18T04:52:01;8.40;99.90
70550;DHT22;58101;48.658;2.328;2022-11-18T04:54:27;8.40;99.90
70550;DHT22;58101;48.658;2.328;2022-11-18T04:56:54;8.40;99.90
70550;DHT22;58101;48.658;2.328;2022-11-18T04:59:23;8.40;99.90
70550;DHT22;58101;48.658;2.328;2022-11-18T05:01:58;8.40;99.90
70550;DHT22;58101;48.658;2.328;2022-11-18T05:04:30;8.40;99.90
70550;DHT22;58101;48.658;2.328;2022-11-18T05:07:00;8.40;99.90
70550;DHT22;58101;48.658;2.328;2022-11-18T05:09:26;8.40;99.90
70550;DHT22;58101;48.658;2.328;2022-11-18T05:11:52;8.30;99.90
70550;DHT22;58101;48.658;2.328;2022-11-18T05:14:37;8.40;99.90
70550;DHT22;58101;48.658;2.328;2022-11-18T05:17:14;8.30;99.90
70550;DHT22;58101;48.658;2.328;2022-11-18T05:19:40;8.30;99.90
70550;DHT22;58101;48.658;2.328;2022-11-18T05:22:17;8.30;99.90
70550;DHT22;58101;48.658;2.328;2022-11-18T05:24:43;8.40;99.90
70550;DHT22;58101;48.658;2.328;2022-11-18T05:27:10;8.30;99.90
70550;DHT22;58101;48.658;2.328;2022-11-18T05:29:36;8.20;99.90
70550;DHT22;58101;48.658;2.328;2022-11-18T05:32:01;8.20;99.90
70550;DHT22;58101;48.658;2.328;2022-11-18T05:34:27;8.20;99.90
70550;DHT22;58101;48.658;2.328;2022-11-18T05:36:55;8.20;99.90
70550;DHT22;58101;48.658;2.328;2022-11-18T05:39:27;8.10;99.90
70550;DHT22;58101;48.658;2.328;2022-11-18T05:41:53;8.10;99.90
70550;DHT22;58101;48.658;2.328;2022-11-18T05:44:37;8.10;99.90
70550;DHT22;58101;48.658;2.328;2022-11-18T05:47:08;8.10;99.90
70550;DHT22;58101;48.658;2.328;2022-11-18T05:49:34;8.10;99.90
70550;DHT22;58101;48.658;2.328;2022-11-18T05:52:00;8.10;99.90
70550;DHT22;58101;48.658;2.328;2022-11-18T05:54:29;8.10;99.90
70550;DHT22;58101;48.658;2.328;2022-11-18T05:56:58;8.00;99.90
70550;DHT22;58101;48.658;2.328;2022-11-18T05:59:24;8.00;99.90
70550;DHT22;58101;48.658;2.328;2022-11-18T06:02:17;8.00;99.90
70550;DHT22;58101;48.658;2.328;2022-11-18T06:05:05;8.00;99.90
70550;DHT22;58101;48.658;2.328;2022-11-18T06:07:34;8.00;99.90
70550;DHT22;58101;48.658;2.328;2022-11-18T06:10:04;8.00;99.90
70550;DHT22;58101;48.658;2.328;2022-11-18T06:12:37;7.90;99.90
70550;DHT22;58101;48.658;2.328;2022-11-18T06:15:19;7.90;99.90
70550;DHT22;58101;48.658;2.328;2022-11-18T06:18:02;7.90;99.90
70550;DHT22;58101;48.658;2.328;2022-11-18T06:20:29;7.80;99.90
70550;DHT22;58101;48.658;2.328;2022-11-18T06:22:55;7.80;99.90
70550;DHT22;58101;48.658;2.328;2022-11-18T06:25:31;7.80;99.90
70550;DHT22;58101;48.658;2.328;2022-11-18T06:27:59;7.80;99.90
70550;DHT22;58101;48.658;2.328;2022-11-18T06:30:26;7.80;99.90
70550;DHT22;58101;48.658;2.328;2022-11-18T06:32:51;7.80;99.90
70550;DHT22;58101;48.658;2.328;2022-11-18T06:35:17;7.80;99.90
70550;DHT22;58101;48.658;2.328;2022-11-18T06:37:43;7.70;99.90
70550;DHT22;58101;48.658;2.328;2022-11-18T06:40:15;7.70;99.90
70550;DHT22;58101;48.658;2.328;2022-11-18T06:42:40;7.70;99.90
70550;DHT22;58101;48.658;2.328;2022-11-18T06:45:24;7.70;99.90
70550;DHT22;58101;48.658;2.328;2022-11-18T06:47:50;7.70;99.90
70550;DHT22;58101;48.658;2.328;2022-11-18T06:50:16;7.60;99.90
70550;DHT22;58101;48.658;2.328;2022-11-18T06:52:42;7.70;99.90
70550;DHT22;58101;48.658;2.328;2022-11-18T06:55:08;7.70;99.90
70550;DHT22;58101;48.658;2.328;2022-11-18T06:57:34;7.70;99.90
70550;DHT22;58101;48.658;2.328;2022-11-18T06:59:59;7.60;99.90
70550;DHT22;58101;48.658;2.328;2022-11-18T07:02:31;7.70;99.90
70550;DHT22;58101;48.658;2.328;2022-11-18T07:05:16;7.70;99.90
70550;DHT22;58101;48.658;2.328;2022-11-18T07:07:51;7.70;99.90
70550;DHT22;58101;48.658;2.328;2022-11-18T07:10:17;7.70;99.90
70550;DHT22;58101;48.658;2.328;2022-11-18T07:12:42;7.70;99.90
70550;DHT22;58101;48.658;2.328;2022-11-18T07:15:08;7.70;99.90
70550;DHT22;58101;48.658;2.328;2022-11-18T07:17:34;7.70;99.90
70550;DHT22;58101;48.658;2.328;2022-11-18T07:20:00;7.70;99.90
70550;DHT22;58101;48.658;2.328;2022-11-18T07:22:25;7.80;99.90
70550;DHT22;58101;48.658;2.328;2022-11-18T07:24:54;8.00;99.90
70550;DHT22;58101;48.658;2.328;2022-11-18T07:27:20;7.80;99.90
70550;DHT22;58101;48.658;2.328;2022-11-18T07:29:54;7.90;99.90
70550;DHT22;58101;48.658;2.328;2022-11-18T07:32:19;7.90;99.90
70550;DHT22;58101;48.658;2.328;2022-11-18T07:34:45;8.00;99.90
70550;DHT22;58101;48.658;2.328;2022-11-18T07:37:11;8.00;99.90
70550;DHT22;58101;48.658;2.328;2022-11-18T07:39:36;8.00;99.90
70550;DHT22;58101;48.658;2.328;2022-11-18T07:42:02;8.10;99.90
70550;DHT22;58101;48.658;2.328;2022-11-18T07:44:28;8.10;99.90
70550;DHT22;58101;48.658;2.328;2022-11-18T07:46:53;8.20;99.90
70550;DHT22;58101;48.658;2.328;2022-11-18T07:49:19;8.20;99.90
70550;DHT22;58101;48.658;2.328;2022-11-18T07:51:44;8.20;99.90
70550;DHT22;58101;48.658;2.328;2022-11-18T07:54:12;8.30;99.90
70550;DHT22;58101;48.658;2.328;2022-11-18T07:56:38;8.30;99.90
70550;DHT22;58101;48.658;2.328;2022-11-18T07:59:04;8.40;99.90
70550;DHT22;58101;48.658;2.328;2022-11-18T08:01:30;8.40;99.90
70550;DHT22;58101;48.658;2.328;2022-11-18T08:03:57;8.40;99.90
70550;DHT22;58101;48.658;2.328;2022-11-18T08:06:28;8.60;99.90
70550;DHT22;58101;48.658;2.328;2022-11-18T08:08:56;8.70;99.90
70550;DHT22;58101;48.658;2.328;2022-11-18T08:11:22;8.80;99.90
70550;DHT22;58101;48.658;2.328;2022-11-18T08:13:47;8.80;99.90
70550;DHT22;58101;48.658;2.328;2022-11-18T08:16:18;9.00;99.90
70550;DHT22;58101;48.658;2.328;2022-11-18T08:18:44;9.10;99.90
70550;DHT22;58101;48.658;2.328;2022-11-18T08:21:14;9.20;99.90
70550;DHT22;58101;48.658;2.328;2022-11-18T08:23:40;9.30;99.90
70550;DHT22;58101;48.658;2.328;2022-11-18T08:26:11;9.30;99.90
70550;DHT22;58101;48.658;2.328;2022-11-18T08:28:41;9.30;99.90
70550;DHT22;58101;48.658;2.328;2022-11-18T08:31:11;9.30;99.90
70550;DHT22;58101;48.658;2.328;2022-11-18T08:33:37;9.30;99.90
70550;DHT22;58101;48.658;2.328;2022-11-18T08:36:14;9.30;99.90
70550;DHT22;58101;48.658;2.328;2022-11-18T08:38:40;9.40;99.90
70550;DHT22;58101;48.658;2.328;2022-11-18T08:41:12;9.50;99.90
70550;DHT22;58101;48.658;2.328;2022-11-18T08:43:38;9.40;99.90
70550;DHT22;58101;48.658;2.328;2022-11-18T08:46:03;9.80;99.90
70550;DHT22;58101;48.658;2.328;2022-11-18T08:48:29;10.10;99.90
70550;DHT22;58101;48.658;2.328;2022-11-18T08:50:56;10.50;99.90
70550;DHT22;58101;48.658;2.328;2022-11-18T08:53:22;11.10;99.90
70550;DHT22;58101;48.658;2.328;2022-11-18T08:55:56;12.20;99.90
70550;DHT22;58101;48.658;2.328;2022-11-18T08:58:22;13.10;92.80
70550;DHT22;58101;48.658;2.328;2022-11-18T09:00:48;13.00;90.90
70550;DHT22;58101;48.658;2.328;2022-11-18T09:03:14;13.10;92.40
70550;DHT22;58101;48.658;2.328;2022-11-18T09:05:39;13.00;91.60
70550;DHT22;58101;48.658;2.328;2022-11-18T09:08:05;12.90;91.20
70550;DHT22;58101;48.658;2.328;2022-11-18T09:10:31;13.00;93.20
70550;DHT22;58101;48.658;2.328;2022-11-18T09:12:57;13.10;90.80
70550;DHT22;58101;48.658;2.328;2022-11-18T09:15:22;12.50;91.30
70550;DHT22;58101;48.658;2.328;2022-11-18T09:17:48;11.90;94.80
70550;DHT22;58101;48.658;2.328;2022-11-18T09:20:16;11.50;98.10
70550;DHT22;58101;48.658;2.328;2022-11-18T09:22:41;11.20;99.90
70550;DHT22;58101;48.658;2.328;2022-11-18T09:25:08;10.90;99.90
70550;DHT22;58101;48.658;2.328;2022-11-18T09:27:34;10.80;99.90
70550;DHT22;58101;48.658;2.328;2022-11-18T09:30:00;10.70;99.90
70550;DHT22;58101;48.658;2.328;2022-11-18T09:32:25;10.80;99.90
70550;DHT22;58101;48.658;2.328;2022-11-18T09:34:51;10.70;99.90
70550;DHT22;58101;48.658;2.328;2022-11-18T09:37:20;10.60;99.90
70550;DHT22;58101;48.658;2.328;2022-11-18T09:39:46;10.50;99.90
70550;DHT22;58101;48.658;2.328;2022-11-18T09:42:28;10.50;99.90
70550;DHT22;58101;48.658;2.328;2022-11-18T09:47:42;10.90;99.90
70550;DHT22;58101;48.658;2.328;2022-11-18T09:50:18;11.30;99.90
70550;DHT22;58101;48.658;2.328;2022-11-18T09:55:25;12.70;97.90
70550;DHT22;58101;48.658;2.328;2022-11-18T09:57:54;13.00;93.70
70550;DHT22;58101;48.658;2.328;2022-11-18T10:00:24;13.20;92.50
70550;DHT22;58101;48.658;2.328;2022-11-18T10:03:18;13.50;92.10
70550;DHT22;58101;48.658;2.328;2022-11-18T10:05:57;13.60;91.10
70550;DHT22;58101;48.658;2.328;2022-11-18T10:08:27;14.00;88.40
70550;DHT22;58101;48.658;2.328;2022-11-18T10:13:39;14.10;85.40
70550;DHT22;58101;48.658;2.328;2022-11-18T10:16:28;14.00;84.70
70550;DHT22;58101;48.658;2.328;2022-11-18T10:24:36;13.20;90.10
70550;DHT22;58101;48.658;2.328;2022-11-18T10:27:11;12.90;90.70
70550;DHT22;58101;48.658;2.328;2022-11-18T10:29:38;12.90;92.30
70550;DHT22;58101;48.658;2.328;2022-11-18T10:32:07;12.90;91.40
70550;DHT22;58101;48.658;2.328;2022-11-18T10:34:34;12.70;92.10
70550;DHT22;58101;48.658;2.328;2022-11-18T10:37:25;12.50;92.90
70550;DHT22;58101;48.658;2.328;2022-11-18T10:39:56;13.00;95.50
70550;DHT22;58101;48.658;2.328;2022-11-18T10:42:29;14.50;87.60
70550;DHT22;58101;48.658;2.328;2022-11-18T10:48:08;17.00;73.30
70550;DHT22;58101;48.658;2.328;2022-11-18T10:50:40;18.60;67.00
70550;DHT22;58101;48.658;2.328;2022-11-18T10:56:06;19.80;60.40
70550;DHT22;58101;48.658;2.328;2022-11-18T10:58:35;20.80;56.40
70550;DHT22;58101;48.658;2.328;2022-11-18T11:01:21;21.70;53.80
70550;DHT22;58101;48.658;2.328;2022-11-18T11:04:11;21.90;52.40
70550;DHT22;58101;48.658;2.328;2022-11-18T11:06:40;21.60;51.40
70550;DHT22;58101;48.658;2.328;2022-11-18T11:11:42;20.20;55.10
70550;DHT22;58101;48.658;2.328;2022-11-18T11:20:01;19.00;58.30
70550;DHT22;58101;48.658;2.328;2022-11-18T11:22:28;18.50;61.00
70550;DHT22;58101;48.658;2.328;2022-11-18T11:24:55;18.20;61.50
70550;DHT22;58101;48.658;2.328;2022-11-18T11:30:08;17.00;64.10
70550;DHT22;58101;48.658;2.328;2022-11-18T11:35:54;15.70;69.20
70550;DHT22;58101;48.658;2.328;2022-11-18T11:41:38;14.90;73.40
70550;DHT22;58101;48.658;2.328;2022-11-18T11:47:14;14.00;80.30
70550;DHT22;58101;48.658;2.328;2022-11-18T11:56:37;13.30;86.00
70550;DHT22;58101;48.658;2.328;2022-11-18T12:04:45;13.40;88.20
70550;DHT22;58101;48.658;2.328;2022-11-18T12:07:20;13.60;87.90
70550;DHT22;58101;48.658;2.328;2022-11-18T12:20:45;13.10;91.00
70550;DHT22;58101;48.658;2.328;2022-11-18T12:25:51;13.00;91.20
70550;DHT22;58101;48.658;2.328;2022-11-18T12:36:38;14.60;83.10
70550;DHT22;58101;48.658;2.328;2022-11-18T12:44:48;17.60;67.90
70550;DHT22;58101;48.658;2.328;2022-11-18T12:47:54;18.50;63.70
70550;DHT22;58101;48.658;2.328;2022-11-18T12:55:03;18.10;63.20
70550;DHT22;58101;48.658;2.328;2022-11-18T12:57:40;17.60;65.10
70550;DHT22;58101;48.658;2.328;2022-11-18T13:00:28;16.80;67.30
70550;DHT22;58101;48.658;2.328;2022-11-18T13:02:59;16.20;69.90
70550;DHT22;58101;48.658;2.328;2022-11-18T13:05:32;15.60;71.70
70550;DHT22;58101;48.658;2.328;2022-11-18T13:08:13;15.30;73.10
70550;DHT22;58101;48.658;2.328;2022-11-18T13:10:50;15.20;73.70
70550;DHT22;58101;48.658;2.328;2022-11-18T13:13:27;14.90;74.90
70550;DHT22;58101;48.658;2.328;2022-11-18T13:15:54;14.60;76.70
70550;DHT22;58101;48.658;2.328;2022-11-18T13:18:51;14.20;79.60
70550;DHT22;58101;48.658;2.328;2022-11-18T13:21:22;14.10;82.10
70550;DHT22;58101;48.658;2.328;2022-11-18T13:24:11;14.00;81.40
70550;DHT22;58101;48.658;2.328;2022-11-18T13:26:40;13.80;81.40
70550;DHT22;58101;48.658;2.328;2022-11-18T13:34:31;13.50;81.30
70550;DHT22;58101;48.658;2.328;2022-11-18T13:37:11;13.50;82.10
70550;DHT22;58101;48.658;2.328;2022-11-18T13:39:42;13.50;81.80
70550;DHT22;58101;48.658;2.328;2022-11-18T13:47:58;13.50;82.50
70550;DHT22;58101;48.658;2.328;2022-11-18T13:50:34;13.50;83.90
70550;DHT22;58101;48.658;2.328;2022-11-18T13:53:30;13.40;83.30
70550;DHT22;58101;48.658;2.328;2022-11-18T13:56:00;13.40;84.40
70550;DHT22;58101;48.658;2.328;2022-11-18T14:01:04;13.50;84.00
70550;DHT22;58101;48.658;2.328;2022-11-18T14:03:54;13.40;83.30
70550;DHT22;58101;48.658;2.328;2022-11-18T14:06:24;13.40;82.00
70550;DHT22;58101;48.658;2.328;2022-11-18T14:09:01;13.40;82.10
70550;DHT22;58101;48.658;2.328;2022-11-18T14:11:40;13.40;83.10
70550;DHT22;58101;48.658;2.328;2022-11-18T14:17:03;13.30;83.50
70550;DHT22;58101;48.658;2.328;2022-11-18T14:19:38;13.30;84.30
70550;DHT22;58101;48.658;2.328;2022-11-18T14:22:10;13.20;82.50
70550;DHT22;58101;48.658;2.328;2022-11-18T14:24:36;13.10;82.80
70550;DHT22;58101;48.658;2.328;2022-11-18T14:29:52;13.00;85.00
70550;DHT22;58101;48.658;2.328;2022-11-18T14:32:18;12.90;84.10
70550;DHT22;58101;48.658;2.328;2022-11-18T14:34:44;12.90;85.30
70550;DHT22;58101;48.658;2.328;2022-11-18T14:37:13;12.90;83.50
70550;DHT22;58101;48.658;2.328;2022-11-18T14:39:40;12.80;84.40
70550;DHT22;58101;48.658;2.328;2022-11-18T14:42:10;12.80;86.40
70550;DHT22;58101;48.658;2.328;2022-11-18T14:44:37;12.70;87.10
70550;DHT22;58101;48.658;2.328;2022-11-18T14:47:10;12.70;87.10
70550;DHT22;58101;48.658;2.328;2022-11-18T14:49:40;12.70;86.90
70550;DHT22;58101;48.658;2.328;2022-11-18T14:52:08;12.60;86.70
70550;DHT22;58101;48.658;2.328;2022-11-18T14:54:34;12.60;87.30
70550;DHT22;58101;48.658;2.328;2022-11-18T14:57:02;12.60;88.20
70550;DHT22;58101;48.658;2.328;2022-11-18T14:59:28;12.60;88.20
70550;DHT22;58101;48.658;2.328;2022-11-18T15:01:54;12.50;87.70
70550;DHT22;58101;48.658;2.328;2022-11-18T15:04:20;12.50;87.70
70550;DHT22;58101;48.658;2.328;2022-11-18T15:06:46;12.40;88.60
70550;DHT22;58101;48.658;2.328;2022-11-18T15:09:12;12.40;90.00
70550;DHT22;58101;48.658;2.328;2022-11-18T15:11:38;12.40;88.90
70550;DHT22;58101;48.658;2.328;2022-11-18T15:14:04;12.40;90.00
70550;DHT22;58101;48.658;2.328;2022-11-18T15:16:31;12.30;90.20
70550;DHT22;58101;48.658;2.328;2022-11-18T15:19:00;12.30;90.10
70550;DHT22;58101;48.658;2.328;2022-11-18T15:21:26;12.30;90.00
70550;DHT22;58101;48.658;2.328;2022-11-18T15:23:52;12.30;90.00
70550;DHT22;58101;48.658;2.328;2022-11-18T15:26:31;12.30;89.50
70550;DHT22;58101;48.658;2.328;2022-11-18T15:29:02;12.30;90.70
70550;DHT22;58101;48.658;2.328;2022-11-18T15:31:27;12.30;90.90
70550;DHT22;58101;48.658;2.328;2022-11-18T15:33:53;12.30;91.80
70550;DHT22;58101;48.658;2.328;2022-11-18T15:36:23;12.30;93.30
70550;DHT22;58101;48.658;2.328;2022-11-18T15:38:50;12.20;94.40
70550;DHT22;58101;48.658;2.328;2022-11-18T15:41:22;12.20;96.40
70550;DHT22;58101;48.658;2.328;2022-11-18T15:43:48;12.20;96.80
70550;DHT22;58101;48.658;2.328;2022-11-18T15:46:18;12.10;97.50
70550;DHT22;58101;48.658;2.328;2022-11-18T15:48:50;12.10;98.40
70550;DHT22;58101;48.658;2.328;2022-11-18T15:51:16;12.00;99.90
70550;DHT22;58101;48.658;2.328;2022-11-18T15:53:42;11.90;99.90
70550;DHT22;58101;48.658;2.328;2022-11-18T15:59:05;11.70;99.90
70550;DHT22;58101;48.658;2.328;2022-11-18T16:01:34;11.70;99.90
70550;DHT22;58101;48.658;2.328;2022-11-18T16:04:07;11.60;99.90
70550;DHT22;58101;48.658;2.328;2022-11-18T16:06:33;11.50;99.90
70550;DHT22;58101;48.658;2.328;2022-11-18T16:09:02;11.50;99.90
70550;DHT22;58101;48.658;2.328;2022-11-18T16:11:28;11.50;99.90
70550;DHT22;58101;48.658;2.328;2022-11-18T16:14:17;11.50;99.90
70550;DHT22;58101;48.658;2.328;2022-11-18T16:16:44;11.30;99.90
70550;DHT22;58101;48.658;2.328;2022-11-18T16:19:13;10.90;99.90
70550;DHT22;58101;48.658;2.328;2022-11-18T16:21:43;10.80;99.90
70550;DHT22;58101;48.658;2.328;2022-11-18T16:24:13;10.50;99.90
70550;DHT22;58101;48.658;2.328;2022-11-18T16:26:40;10.30;99.90
70550;DHT22;58101;48.658;2.328;2022-11-18T16:29:06;10.30;99.90
70550;DHT22;58101;48.658;2.328;2022-11-18T16:31:32;10.30;99.90
70550;DHT22;58101;48.658;2.328;2022-11-18T16:36:35;10.40;99.90
70550;DHT22;58101;48.658;2.328;2022-11-18T16:39:24;10.20;99.90
70550;DHT22;58101;48.658;2.328;2022-11-18T16:41:52;10.20;99.90
70550;DHT22;58101;48.658;2.328;2022-11-18T16:44:18;10.20;99.90
70550;DHT22;58101;48.658;2.328;2022-11-18T16:46:48;10.20;99.90
70550;DHT22;58101;48.658;2.328;2022-11-18T16:49:16;10.20;99.90
70550;DHT22;58101;48.658;2.328;2022-11-18T16:51:44;10.20;99.90
70550;DHT22;58101;48.658;2.328;2022-11-18T16:56:44;10.10;99.90
70550;DHT22;58101;48.658;2.328;2022-11-18T16:59:20;10.10;99.90
70550;DHT22;58101;48.658;2.328;2022-11-18T17:01:47;10.00;99.90
70550;DHT22;58101;48.658;2.328;2022-11-18T17:04:13;10.00;99.90
70550;DHT22;58101;48.658;2.328;2022-11-18T17:06:40;9.80;99.90
70550;DHT22;58101;48.658;2.328;2022-11-18T17:09:07;9.80;99.90
70550;DHT22;58101;48.658;2.328;2022-11-18T17:11:36;9.70;99.90
70550;DHT22;58101;48.658;2.328;2022-11-18T17:14:02;9.70;99.90
70550;DHT22;58101;48.658;2.328;2022-11-18T17:16:27;9.70;99.90
70550;DHT22;58101;48.658;2.328;2022-11-18T17:18:58;9.70;99.90
70550;DHT22;58101;48.658;2.328;2022-11-18T17:21:25;9.70;99.90
70550;DHT22;58101;48.658;2.328;2022-11-18T17:23:51;9.70;99.90
70550;DHT22;58101;48.658;2.328;2022-11-18T17:26:20;9.60;99.90
70550;DHT22;58101;48.658;2.328;2022-11-18T17:28:46;9.60;99.90
70550;DHT22;58101;48.658;2.328;2022-11-18T17:31:14;9.50;99.90
70550;DHT22;58101;48.658;2.328;2022-11-18T17:33:41;9.40;99.90
70550;DHT22;58101;48.658;2.328;2022-11-18T17:36:15;9.40;99.90
70550;DHT22;58101;48.658;2.328;2022-11-18T17:38:43;9.30;99.90
70550;DHT22;58101;48.658;2.328;2022-11-18T17:41:17;9.30;99.90
70550;DHT22;58101;48.658;2.328;2022-11-18T17:44:03;9.20;99.90
70550;DHT22;58101;48.658;2.328;2022-11-18T17:46:30;9.20;99.90
70550;DHT22;58101;48.658;2.328;2022-11-18T17:48:57;9.30;99.90
70550;DHT22;58101;48.658;2.328;2022-11-18T17:51:24;9.10;99.90
70550;DHT22;58101;48.658;2.328;2022-11-18T17:53:50;9.10;99.90
70550;DHT22;58101;48.658;2.328;2022-11-18T17:56:16;9.10;99.90
70550;DHT22;58101;48.658;2.328;2022-11-18T17:58:42;9.20;99.90
70550;DHT22;58101;48.658;2.328;2022-11-18T18:01:09;9.20;99.90
70550;DHT22;58101;48.658;2.328;2022-11-18T18:03:35;9.10;99.90
70550;DHT22;58101;48.658;2.328;2022-11-18T18:06:02;9.10;99.90
70550;DHT22;58101;48.658;2.328;2022-11-18T18:08:27;9.20;99.90
70550;DHT22;58101;48.658;2.328;2022-11-18T18:10:53;9.10;99.90
70550;DHT22;58101;48.658;2.328;2022-11-18T18:13:18;9.20;99.90
70550;DHT22;58101;48.658;2.328;2022-11-18T18:16:03;9.10;99.90
70550;DHT22;58101;48.658;2.328;2022-11-18T18:18:29;9.10;99.90